sensor_id;sensor_type;location;lat;lon;timestamp;temperature;humidity
17565;DHT22;62994;52.126;5.596;2023-09-07T00:01:53;22.90;99.90
17565;DHT22;62994;52.126;5.596;2023-09-07T00:04:20;22.90;99.90
17565;DHT22;62994;52.126;5.596;2023-09-07T00:06:49;22.80;99.90
17565;DHT22;62994;52.126;5.596;2023-09-07T00:09:16;22.80;99.90
17565;DHT22;62994;52.126;5.596;2023-09-07T00:11:47;22.70;99.90
17565;DHT22;62994;52.126;5.596;2023-09-07T00:14:14;22.70;99.90
17565;DHT22;62994;52.126;5.596;2023-09-07T00:16:41;22.70;99.90
17565;DHT22;62994;52.126;5.596;2023-09-07T00:19:08;22.60;99.90
17565;DHT22;62994;52.126;5.596;2023-09-07T00:21:37;22.60;99.90
17565;DHT22;62994;52.126;5.596;2023-09-07T00:24:06;22.60;99.90
17565;DHT22;62994;52.126;5.596;2023-09-07T00:26:33;22.60;99.90
17565;DHT22;62994;52.126;5.596;2023-09-07T00:29:05;22.60;99.90
17565;DHT22;62994;52.126;5.596;2023-09-07T00:31:32;22.50;99.90
17565;DHT22;62994;52.126;5.596;2023-09-07T00:34:02;22.50;99.90
17565;DHT22;62994;52.126;5.596;2023-09-07T00:36:29;22.50;99.90
17565;DHT22;62994;52.126;5.596;2023-09-07T00:38:56;22.50;99.90
17565;DHT22;62994;52.126;5.596;2023-09-07T00:41:24;22.50;99.90
17565;DHT22;62994;52.126;5.596;2023-09-07T00:43:51;22.50;99.90
17565;DHT22;62994;52.126;5.596;2023-09-07T00:46:18;22.50;99.90
17565;DHT22;62994;52.126;5.596;2023-09-07T00:48:46;22.50;99.90
17565;DHT22;62994;52.126;5.596;2023-09-07T00:51:13;22.40;99.90
17565;DHT22;62994;52.126;5.596;2023-09-07T00:53:40;22.40;99.90
17565;DHT22;62994;52.126;5.596;2023-09-07T00:56:09;22.40;99.90
17565;DHT22;62994;52.126;5.596;2023-09-07T00:58:37;22.40;99.90
17565;DHT22;62994;52.126;5.596;2023-09-07T01:01:05;22.40;99.90
17565;DHT22;62994;52.126;5.596;2023-09-07T01:03:32;22.40;99.90
17565;DHT22;62994;52.126;5.596;2023-09-07T01:06:03;22.40;99.90
17565;DHT22;62994;52.126;5.596;2023-09-07T01:08:35;22.30;99.90
17565;DHT22;62994;52.126;5.596;2023-09-07T01:11:12;22.30;99.90
17565;DHT22;62994;52.126;5.596;2023-09-07T01:13:41;22.20;99.90
17565;DHT22;62994;52.126;5.596;2023-09-07T01:16:09;22.10;99.90
17565;DHT22;62994;52.126;5.596;2023-09-07T01:18:38;22.00;99.90
17565;DHT22;62994;52.126;5.596;2023-09-07T01:21:08;22.10;99.90
17565;DHT22;62994;52.126;5.596;2023-09-07T01:23:46;22.00;99.90
17565;DHT22;62994;52.126;5.596;2023-09-07T01:26:20;22.00;99.90
17565;DHT22;62994;52.126;5.596;2023-09-07T01:28:51;21.90;99.90
17565;DHT22;62994;52.126;5.596;2023-09-07T01:31:20;21.80;99.90
17565;DHT22;62994;52.126;5.596;2023-09-07T01:33:53;21.80;99.90
17565;DHT22;62994;52.126;5.596;2023-09-07T01:36:20;21.80;99.90
17565;DHT22;62994;52.126;5.596;2023-09-07T01:38:55;21.70;99.90
17565;DHT22;62994;52.126;5.596;2023-09-07T01:41:31;21.70;99.90
17565;DHT22;62994;52.126;5.596;2023-09-07T01:44:05;21.70;99.90
17565;DHT22;62994;52.126;5.596;2023-09-07T01:46:41;21.60;99.90
17565;DHT22;62994;52.126;5.596;2023-09-07T01:49:15;21.60;99.90
17565;DHT22;62994;52.126;5.596;2023-09-07T01:51:55;21.60;99.90
17565;DHT22;62994;52.126;5.596;2023-09-07T01:54:27;21.60;99.90
17565;DHT22;62994;52.126;5.596;2023-09-07T01:57:02;21.60;99.90
17565;DHT22;62994;52.126;5.596;2023-09-07T01:59:34;21.60;99.90
17565;DHT22;62994;52.126;5.596;2023-09-07T02:02:05;21.50;99.90
17565;DHT22;62994;52.126;5.596;2023-09-07T02:04:34;21.50;99.90
17565;DHT22;62994;52.126;5.596;2023-09-07T02:07:05;21.40;99.90
17565;DHT22;62994;52.126;5.596;2023-09-07T02:09:38;21.30;99.90
17565;DHT22;62994;52.126;5.596;2023-09-07T02:12:13;21.30;99.90
17565;DHT22;62994;52.126;5.596;2023-09-07T02:14:44;21.20;99.90
17565;DHT22;62994;52.126;5.596;2023-09-07T02:17:22;21.10;99.90
17565;DHT22;62994;52.126;5.596;2023-09-07T02:19:54;21.00;99.90
17565;DHT22;62994;52.126;5.596;2023-09-07T02:22:22;20.90;99.90
17565;DHT22;62994;52.126;5.596;2023-09-07T02:24:54;20.90;99.90
17565;DHT22;62994;52.126;5.596;2023-09-07T02:27:26;20.80;99.90
17565;DHT22;62994;52.126;5.596;2023-09-07T02:29:58;20.90;99.90
17565;DHT22;62994;52.126;5.596;2023-09-07T02:32:29;20.70;99.90
17565;DHT22;62994;52.126;5.596;2023-09-07T02:35:05;20.80;99.90
17565;DHT22;62994;52.126;5.596;2023-09-07T02:37:37;20.80;99.90
17565;DHT22;62994;52.126;5.596;2023-09-07T02:40:08;20.80;99.90
17565;DHT22;62994;52.126;5.596;2023-09-07T02:42:40;20.70;99.90
17565;DHT22;62994;52.126;5.596;2023-09-07T02:45:11;20.70;99.90
17565;DHT22;62994;52.126;5.596;2023-09-07T02:47:40;20.70;99.90
17565;DHT22;62994;52.126;5.596;2023-09-07T02:50:08;20.70;99.90
17565;DHT22;62994;52.126;5.596;2023-09-07T02:52:37;20.70;99.90
17565;DHT22;62994;52.126;5.596;2023-09-07T02:55:14;20.70;99.90
17565;DHT22;62994;52.126;5.596;2023-09-07T02:57:44;20.70;99.90
17565;DHT22;62994;52.126;5.596;2023-09-07T03:00:19;20.70;99.90
17565;DHT22;62994;52.126;5.596;2023-09-07T03:02:55;20.70;99.90
17565;DHT22;62994;52.126;5.596;2023-09-07T03:05:27;20.70;99.90
17565;DHT22;62994;52.126;5.596;2023-09-07T03:07:58;20.60;99.90
17565;DHT22;62994;52.126;5.596;2023-09-07T03:10:29;20.60;99.90
17565;DHT22;62994;52.126;5.596;2023-09-07T03:12:58;20.50;99.90
17565;DHT22;62994;52.126;5.596;2023-09-07T03:15:26;20.50;99.90
17565;DHT22;62994;52.126;5.596;2023-09-07T03:18:11;20.40;99.90
17565;DHT22;62994;52.126;5.596;2023-09-07T03:20:53;20.40;99.90
17565;DHT22;62994;52.126;5.596;2023-09-07T03:23:22;20.40;99.90
17565;DHT22;62994;52.126;5.596;2023-09-07T03:25:53;20.30;99.90
17565;DHT22;62994;52.126;5.596;2023-09-07T03:28:28;20.20;99.90
17565;DHT22;62994;52.126;5.596;2023-09-07T03:31:13;20.20;99.90
17565;DHT22;62994;52.126;5.596;2023-09-07T03:33:42;20.10;99.90
17565;DHT22;62994;52.126;5.596;2023-09-07T03:36:15;20.10;99.90
17565;DHT22;62994;52.126;5.596;2023-09-07T03:38:45;20.10;99.90
17565;DHT22;62994;52.126;5.596;2023-09-07T03:41:21;20.10;99.90
17565;DHT22;62994;52.126;5.596;2023-09-07T03:44:00;20.10;99.90
17565;DHT22;62994;52.126;5.596;2023-09-07T03:46:32;20.10;99.90
17565;DHT22;62994;52.126;5.596;2023-09-07T03:49:06;20.10;99.90
17565;DHT22;62994;52.126;5.596;2023-09-07T03:51:39;20.10;99.90
17565;DHT22;62994;52.126;5.596;2023-09-07T03:54:20;20.10;99.90
17565;DHT22;62994;52.126;5.596;2023-09-07T03:56:54;20.10;99.90
17565;DHT22;62994;52.126;5.596;2023-09-07T03:59:41;20.10;99.90
17565;DHT22;62994;52.126;5.596;2023-09-07T04:02:14;20.10;99.90
17565;DHT22;62994;52.126;5.596;2023-09-07T04:05:06;20.20;99.90
17565;DHT22;62994;52.126;5.596;2023-09-07T04:07:33;20.20;99.90
17565;DHT22;62994;52.126;5.596;2023-09-07T04:10:18;20.20;99.90
17565;DHT22;62994;52.126;5.596;2023-09-07T04:12:56;20.20;99.90
17565;DHT22;62994;52.126;5.596;2023-09-07T04:15:33;20.20;99.90
17565;DHT22;62994;52.126;5.596;2023-09-07T04:18:10;20.10;99.90
17565;DHT22;62994;52.126;5.596;2023-09-07T04:22:07;20.10;99.90
17565;DHT22;62994;52.126;5.596;2023-09-07T04:24:06;20.10;99.90
17565;DHT22;62994;52.126;5.596;2023-09-07T04:26:37;20.10;99.90
17565;DHT22;62994;52.126;5.596;2023-09-07T04:29:11;20.10;99.90
17565;DHT22;62994;52.126;5.596;2023-09-07T04:31:42;20.10;99.90
17565;DHT22;62994;52.126;5.596;2023-09-07T04:34:11;20.10;99.90
17565;DHT22;62994;52.126;5.596;2023-09-07T04:36:41;20.00;99.90
17565;DHT22;62994;52.126;5.596;2023-09-07T04:39:08;20.00;99.90
17565;DHT22;62994;52.126;5.596;2023-09-07T04:41:36;20.00;99.90
17565;DHT22;62994;52.126;5.596;2023-09-07T04:44:11;20.00;99.90
17565;DHT22;62994;52.126;5.596;2023-09-07T04:46:40;20.00;99.90
17565;DHT22;62994;52.126;5.596;2023-09-07T04:49:37;20.00;99.90
17565;DHT22;62994;52.126;5.596;2023-09-07T04:52:09;20.10;99.90
17565;DHT22;62994;52.126;5.596;2023-09-07T04:54:38;20.10;99.90
17565;DHT22;62994;52.126;5.596;2023-09-07T04:57:15;20.00;99.90
17565;DHT22;62994;52.126;5.596;2023-09-07T04:59:53;19.90;99.90
17565;DHT22;62994;52.126;5.596;2023-09-07T05:02:30;19.90;99.90
17565;DHT22;62994;52.126;5.596;2023-09-07T05:05:06;19.90;99.90
17565;DHT22;62994;52.126;5.596;2023-09-07T05:07:37;19.80;99.90
17565;DHT22;62994;52.126;5.596;2023-09-07T05:10:16;19.80;99.90
17565;DHT22;62994;52.126;5.596;2023-09-07T05:12:50;19.80;99.90
17565;DHT22;62994;52.126;5.596;2023-09-07T05:15:35;19.80;99.90
17565;DHT22;62994;52.126;5.596;2023-09-07T05:18:07;19.70;99.90
17565;DHT22;62994;52.126;5.596;2023-09-07T05:20:37;19.70;99.90
17565;DHT22;62994;52.126;5.596;2023-09-07T05:23:04;19.70;99.90
17565;DHT22;62994;52.126;5.596;2023-09-07T05:25:34;19.60;99.90
17565;DHT22;62994;52.126;5.596;2023-09-07T05:28:17;19.50;99.90
17565;DHT22;62994;52.126;5.596;2023-09-07T05:30:54;19.50;99.90
17565;DHT22;62994;52.126;5.596;2023-09-07T05:33:26;19.40;99.90
17565;DHT22;62994;52.126;5.596;2023-09-07T05:35:53;19.40;99.90
17565;DHT22;62994;52.126;5.596;2023-09-07T05:38:22;19.30;99.90
17565;DHT22;62994;52.126;5.596;2023-09-07T05:40:50;19.30;99.90
17565;DHT22;62994;52.126;5.596;2023-09-07T05:43:20;19.30;99.90
17565;DHT22;62994;52.126;5.596;2023-09-07T05:45:57;19.30;99.90
17565;DHT22;62994;52.126;5.596;2023-09-07T05:48:29;19.20;99.90
17565;DHT22;62994;52.126;5.596;2023-09-07T05:50:57;19.20;99.90
17565;DHT22;62994;52.126;5.596;2023-09-07T05:53:39;19.10;99.90
17565;DHT22;62994;52.126;5.596;2023-09-07T05:56:25;19.10;99.90
17565;DHT22;62994;52.126;5.596;2023-09-07T05:58:56;19.10;99.90
17565;DHT22;62994;52.126;5.596;2023-09-07T06:01:27;19.10;99.90
17565;DHT22;62994;52.126;5.596;2023-09-07T06:04:01;19.10;99.90
17565;DHT22;62994;52.126;5.596;2023-09-07T06:06:33;19.10;99.90
17565;DHT22;62994;52.126;5.596;2023-09-07T06:09:04;19.20;99.90
17565;DHT22;62994;52.126;5.596;2023-09-07T06:11:54;19.20;99.90
17565;DHT22;62994;52.126;5.596;2023-09-07T06:14:21;19.20;99.90
17565;DHT22;62994;52.126;5.596;2023-09-07T06:16:56;19.20;99.90
17565;DHT22;62994;52.126;5.596;2023-09-07T06:19:33;19.20;99.90
17565;DHT22;62994;52.126;5.596;2023-09-07T06:22:05;19.20;99.90
17565;DHT22;62994;52.126;5.596;2023-09-07T06:25:17;19.20;99.90
17565;DHT22;62994;52.126;5.596;2023-09-07T06:27:26;19.30;99.90
17565;DHT22;62994;52.126;5.596;2023-09-07T06:30:01;19.30;99.90
17565;DHT22;62994;52.126;5.596;2023-09-07T06:32:30;19.30;99.90
17565;DHT22;62994;52.126;5.596;2023-09-07T06:35:07;19.30;99.90
17565;DHT22;62994;52.126;5.596;2023-09-07T06:37:40;19.30;99.90
17565;DHT22;62994;52.126;5.596;2023-09-07T06:40:13;19.30;99.90
17565;DHT22;62994;52.126;5.596;2023-09-07T06:42:41;19.30;99.90
17565;DHT22;62994;52.126;5.596;2023-09-07T06:45:12;19.30;99.90
17565;DHT22;62994;52.126;5.596;2023-09-07T06:47:45;19.40;99.90
17565;DHT22;62994;52.126;5.596;2023-09-07T06:50:18;19.40;99.90
17565;DHT22;62994;52.126;5.596;2023-09-07T06:52:58;19.40;99.90
17565;DHT22;62994;52.126;5.596;2023-09-07T06:55:48;19.40;99.90
17565;DHT22;62994;52.126;5.596;2023-09-07T06:58:31;19.50;99.90
17565;DHT22;62994;52.126;5.596;2023-09-07T07:01:09;19.60;99.90
17565;DHT22;62994;52.126;5.596;2023-09-07T07:04:00;19.60;99.90
17565;DHT22;62994;52.126;5.596;2023-09-07T07:06:33;19.70;99.90
17565;DHT22;62994;52.126;5.596;2023-09-07T07:09:06;19.70;99.90
17565;DHT22;62994;52.126;5.596;2023-09-07T07:11:35;19.80;99.90
17565;DHT22;62994;52.126;5.596;2023-09-07T07:14:07;19.80;99.90
17565;DHT22;62994;52.126;5.596;2023-09-07T07:16:56;19.90;99.90
17565;DHT22;62994;52.126;5.596;2023-09-07T07:19:25;20.00;99.90
17565;DHT22;62994;52.126;5.596;2023-09-07T07:21:54;20.10;99.90
17565;DHT22;62994;52.126;5.596;2023-09-07T07:24:26;20.10;99.90
17565;DHT22;62994;52.126;5.596;2023-09-07T07:26:59;20.30;99.90
17565;DHT22;62994;52.126;5.596;2023-09-07T07:29:32;20.30;99.90
17565;DHT22;62994;52.126;5.596;2023-09-07T07:32:01;20.40;99.90
17565;DHT22;62994;52.126;5.596;2023-09-07T07:34:32;20.60;99.90
17565;DHT22;62994;52.126;5.596;2023-09-07T07:37:01;20.70;99.90
17565;DHT22;62994;52.126;5.596;2023-09-07T07:39:35;20.80;99.90
17565;DHT22;62994;52.126;5.596;2023-09-07T07:42:03;20.90;99.90
17565;DHT22;62994;52.126;5.596;2023-09-07T07:44:43;21.10;99.90
17565;DHT22;62994;52.126;5.596;2023-09-07T07:47:12;21.30;99.90
17565;DHT22;62994;52.126;5.596;2023-09-07T07:49:41;21.40;99.90
17565;DHT22;62994;52.126;5.596;2023-09-07T07:52:19;21.50;99.90
17565;DHT22;62994;52.126;5.596;2023-09-07T07:55:05;21.50;99.90
17565;DHT22;62994;52.126;5.596;2023-09-07T07:57:33;21.60;99.90
17565;DHT22;62994;52.126;5.596;2023-09-07T08:00:17;21.80;99.90
17565;DHT22;62994;52.126;5.596;2023-09-07T08:02:59;21.90;99.90
17565;DHT22;62994;52.126;5.596;2023-09-07T08:05:49;22.00;99.90
17565;DHT22;62994;52.126;5.596;2023-09-07T08:08:23;22.10;99.90
17565;DHT22;62994;52.126;5.596;2023-09-07T08:11:06;22.20;99.90
17565;DHT22;62994;52.126;5.596;2023-09-07T08:13:53;22.30;99.90
17565;DHT22;62994;52.126;5.596;2023-09-07T08:16:26;22.40;99.90
17565;DHT22;62994;52.126;5.596;2023-09-07T08:19:02;22.50;99.90
17565;DHT22;62994;52.126;5.596;2023-09-07T08:21:40;22.60;99.90
17565;DHT22;62994;52.126;5.596;2023-09-07T08:24:18;22.80;99.90
17565;DHT22;62994;52.126;5.596;2023-09-07T08:27:04;22.90;99.90
17565;DHT22;62994;52.126;5.596;2023-09-07T08:29:45;23.00;99.90
17565;DHT22;62994;52.126;5.596;2023-09-07T08:35:08;23.30;99.90
17565;DHT22;62994;52.126;5.596;2023-09-07T08:37:52;23.50;99.90
17565;DHT22;62994;52.126;5.596;2023-09-07T08:40:26;23.60;99.90
17565;DHT22;62994;52.126;5.596;2023-09-07T08:43:02;23.80;99.90
17565;DHT22;62994;52.126;5.596;2023-09-07T08:45:36;23.90;99.90
17565;DHT22;62994;52.126;5.596;2023-09-07T08:48:06;24.00;99.90
17565;DHT22;62994;52.126;5.596;2023-09-07T08:50:40;24.20;99.90
17565;DHT22;62994;52.126;5.596;2023-09-07T08:53:41;24.30;99.90
17565;DHT22;62994;52.126;5.596;2023-09-07T08:56:14;24.50;99.90
17565;DHT22;62994;52.126;5.596;2023-09-07T08:58:54;24.60;99.90
17565;DHT22;62994;52.126;5.596;2023-09-07T09:01:29;24.80;99.90
17565;DHT22;62994;52.126;5.596;2023-09-07T09:03:59;24.90;99.90
17565;DHT22;62994;52.126;5.596;2023-09-07T09:06:49;25.10;99.90
17565;DHT22;62994;52.126;5.596;2023-09-07T09:09:32;25.30;99.90
17565;DHT22;62994;52.126;5.596;2023-09-07T09:12:09;25.40;99.90
17565;DHT22;62994;52.126;5.596;2023-09-07T09:14:45;25.60;99.90
17565;DHT22;62994;52.126;5.596;2023-09-07T09:17:26;25.80;99.90
17565;DHT22;62994;52.126;5.596;2023-09-07T09:20:28;25.90;99.90
17565;DHT22;62994;52.126;5.596;2023-09-07T09:23:03;26.10;99.90
17565;DHT22;62994;52.126;5.596;2023-09-07T09:25:44;26.20;99.90
17565;DHT22;62994;52.126;5.596;2023-09-07T09:28:59;26.40;99.90
17565;DHT22;62994;52.126;5.596;2023-09-07T09:31:43;26.60;99.90
17565;DHT22;62994;52.126;5.596;2023-09-07T09:34:25;26.70;99.90
17565;DHT22;62994;52.126;5.596;2023-09-07T09:37:01;26.90;99.90
17565;DHT22;62994;52.126;5.596;2023-09-07T09:39:41;27.00;99.90
17565;DHT22;62994;52.126;5.596;2023-09-07T09:42:36;27.20;99.90
17565;DHT22;62994;52.126;5.596;2023-09-07T09:45:12;27.30;99.90
17565;DHT22;62994;52.126;5.596;2023-09-07T09:47:45;27.50;99.90
17565;DHT22;62994;52.126;5.596;2023-09-07T09:50:14;27.60;99.90
17565;DHT22;62994;52.126;5.596;2023-09-07T09:52:48;27.70;99.90
17565;DHT22;62994;52.126;5.596;2023-09-07T09:55:41;27.80;99.90
17565;DHT22;62994;52.126;5.596;2023-09-07T09:58:50;28.20;99.90
17565;DHT22;62994;52.126;5.596;2023-09-07T10:01:30;28.30;99.90
17565;DHT22;62994;52.126;5.596;2023-09-07T10:04:10;28.40;99.90
17565;DHT22;62994;52.126;5.596;2023-09-07T10:06:55;28.40;99.90
17565;DHT22;62994;52.126;5.596;2023-09-07T10:09:29;28.50;99.90
17565;DHT22;62994;52.126;5.596;2023-09-07T10:12:27;28.60;99.90
17565;DHT22;62994;52.126;5.596;2023-09-07T10:15:05;28.70;99.90
17565;DHT22;62994;52.126;5.596;2023-09-07T10:17:34;28.70;99.90
17565;DHT22;62994;52.126;5.596;2023-09-07T10:20:18;28.90;99.90
17565;DHT22;62994;52.126;5.596;2023-09-07T10:23:20;29.00;99.90
17565;DHT22;62994;52.126;5.596;2023-09-07T10:26:05;29.10;99.90
17565;DHT22;62994;52.126;5.596;2023-09-07T10:28:35;29.20;99.90
17565;DHT22;62994;52.126;5.596;2023-09-07T10:31:14;29.30;99.90
17565;DHT22;62994;52.126;5.596;2023-09-07T10:34:07;29.40;99.90
17565;DHT22;62994;52.126;5.596;2023-09-07T10:40:01;29.60;99.90
17565;DHT22;62994;52.126;5.596;2023-09-07T10:43:02;29.70;99.90
17565;DHT22;62994;52.126;5.596;2023-09-07T10:45:50;29.80;99.90
17565;DHT22;62994;52.126;5.596;2023-09-07T10:48:36;29.80;99.90
17565;DHT22;62994;52.126;5.596;2023-09-07T10:51:04;29.90;99.90
17565;DHT22;62994;52.126;5.596;2023-09-07T10:53:39;30.00;99.90
17565;DHT22;62994;52.126;5.596;2023-09-07T10:56:28;30.10;99.90
17565;DHT22;62994;52.126;5.596;2023-09-07T10:59:05;30.10;99.90
17565;DHT22;62994;52.126;5.596;2023-09-07T11:02:04;30.30;99.90
17565;DHT22;62994;52.126;5.596;2023-09-07T11:04:58;30.40;99.90
17565;DHT22;62994;52.126;5.596;2023-09-07T11:07:44;30.60;99.90
17565;DHT22;62994;52.126;5.596;2023-09-07T11:10:53;30.70;99.90
17565;DHT22;62994;52.126;5.596;2023-09-07T11:13:43;30.90;99.90
17565;DHT22;62994;52.126;5.596;2023-09-07T11:16:26;31.00;99.90
17565;DHT22;62994;52.126;5.596;2023-09-07T11:19:11;31.10;99.90
17565;DHT22;62994;52.126;5.596;2023-09-07T11:21:52;31.30;99.90
17565;DHT22;62994;52.126;5.596;2023-09-07T11:24:56;31.50;99.90
17565;DHT22;62994;52.126;5.596;2023-09-07T11:27:44;31.60;99.90
17565;DHT22;62994;52.126;5.596;2023-09-07T11:31:09;31.60;99.90
17565;DHT22;62994;52.126;5.596;2023-09-07T11:33:23;31.60;99.90
17565;DHT22;62994;52.126;5.596;2023-09-07T11:35:55;31.60;99.90
17565;DHT22;62994;52.126;5.596;2023-09-07T11:38:37;31.50;99.90
17565;DHT22;62994;52.126;5.596;2023-09-07T11:41:26;31.50;99.90
17565;DHT22;62994;52.126;5.596;2023-09-07T11:44:06;31.50;99.90
17565;DHT22;62994;52.126;5.596;2023-09-07T11:46:36;31.60;99.90
17565;DHT22;62994;52.126;5.596;2023-09-07T11:49:09;31.60;99.90
17565;DHT22;62994;52.126;5.596;2023-09-07T11:51:45;31.70;99.90
17565;DHT22;62994;52.126;5.596;2023-09-07T11:54:16;31.80;99.90
17565;DHT22;62994;52.126;5.596;2023-09-07T11:56:47;32.00;99.90
17565;DHT22;62994;52.126;5.596;2023-09-07T11:59:32;32.00;99.90
17565;DHT22;62994;52.126;5.596;2023-09-07T12:02:14;32.10;99.90
17565;DHT22;62994;52.126;5.596;2023-09-07T12:04:49;32.30;99.90
17565;DHT22;62994;52.126;5.596;2023-09-07T12:10:07;32.30;99.90
17565;DHT22;62994;52.126;5.596;2023-09-07T12:12:36;32.40;99.90
17565;DHT22;62994;52.126;5.596;2023-09-07T12:15:03;32.40;99.90
17565;DHT22;62994;52.126;5.596;2023-09-07T12:17:31;32.50;99.90
17565;DHT22;62994;52.126;5.596;2023-09-07T12:19:58;32.60;99.90
17565;DHT22;62994;52.126;5.596;2023-09-07T12:22:25;32.70;99.90
17565;DHT22;62994;52.126;5.596;2023-09-07T12:24:52;32.80;99.90
17565;DHT22;62994;52.126;5.596;2023-09-07T12:27:20;32.80;99.90
17565;DHT22;62994;52.126;5.596;2023-09-07T12:29:48;32.80;99.90
17565;DHT22;62994;52.126;5.596;2023-09-07T12:32:16;33.00;99.90
17565;DHT22;62994;52.126;5.596;2023-09-07T12:34:43;33.00;99.90
17565;DHT22;62994;52.126;5.596;2023-09-07T12:37:10;33.10;99.90
17565;DHT22;62994;52.126;5.596;2023-09-07T12:39:37;33.20;99.90
17565;DHT22;62994;52.126;5.596;2023-09-07T12:42:04;33.20;99.90
17565;DHT22;62994;52.126;5.596;2023-09-07T12:44:33;33.30;99.90
17565;DHT22;62994;52.126;5.596;2023-09-07T12:47:00;33.50;99.90
17565;DHT22;62994;52.126;5.596;2023-09-07T12:49:26;33.50;99.90
17565;DHT22;62994;52.126;5.596;2023-09-07T12:51:53;33.70;99.90
17565;DHT22;62994;52.126;5.596;2023-09-07T12:54:20;33.70;99.90
17565;DHT22;62994;52.126;5.596;2023-09-07T12:56:48;33.80;99.90
17565;DHT22;62994;52.126;5.596;2023-09-07T12:59:14;33.90;99.90
17565;DHT22;62994;52.126;5.596;2023-09-07T13:01:43;34.00;99.90
17565;DHT22;62994;52.126;5.596;2023-09-07T13:04:10;34.10;99.90
17565;DHT22;62994;52.126;5.596;2023-09-07T13:06:38;34.20;99.90
17565;DHT22;62994;52.126;5.596;2023-09-07T13:09:05;34.20;99.90
17565;DHT22;62994;52.126;5.596;2023-09-07T13:11:33;34.20;99.90
17565;DHT22;62994;52.126;5.596;2023-09-07T13:14:00;34.30;99.90
17565;DHT22;62994;52.126;5.596;2023-09-07T13:16:27;34.30;99.90
17565;DHT22;62994;52.126;5.596;2023-09-07T13:18:55;34.40;99.90
17565;DHT22;62994;52.126;5.596;2023-09-07T13:21:23;34.40;99.90
17565;DHT22;62994;52.126;5.596;2023-09-07T13:23:50;34.50;99.90
17565;DHT22;62994;52.126;5.596;2023-09-07T13:26:17;34.60;99.90
17565;DHT22;62994;52.126;5.596;2023-09-07T13:28:44;34.70;99.90
17565;DHT22;62994;52.126;5.596;2023-09-07T13:31:10;34.70;99.90
17565;DHT22;62994;52.126;5.596;2023-09-07T13:33:37;34.70;99.90
17565;DHT22;62994;52.126;5.596;2023-09-07T13:36:06;34.70;99.90
17565;DHT22;62994;52.126;5.596;2023-09-07T13:38:35;34.70;99.90
17565;DHT22;62994;52.126;5.596;2023-09-07T13:41:02;34.70;99.90
17565;DHT22;62994;52.126;5.596;2023-09-07T13:43:29;34.70;99.90
17565;DHT22;62994;52.126;5.596;2023-09-07T13:45:56;34.90;99.90
17565;DHT22;62994;52.126;5.596;2023-09-07T13:48:23;34.90;99.90
17565;DHT22;62994;52.126;5.596;2023-09-07T13:50:50;35.00;99.90
17565;DHT22;62994;52.126;5.596;2023-09-07T13:53:18;35.10;99.90
17565;DHT22;62994;52.126;5.596;2023-09-07T13:55:45;35.10;99.90
17565;DHT22;62994;52.126;5.596;2023-09-07T13:58:12;35.10;99.90
17565;DHT22;62994;52.126;5.596;2023-09-07T14:00:39;35.20;99.90
17565;DHT22;62994;52.126;5.596;2023-09-07T14:03:06;35.30;99.90
17565;DHT22;62994;52.126;5.596;2023-09-07T14:05:33;35.30;99.90
17565;DHT22;62994;52.126;5.596;2023-09-07T14:08:00;35.40;99.90
17565;DHT22;62994;52.126;5.596;2023-09-07T14:10:29;35.40;99.90
17565;DHT22;62994;52.126;5.596;2023-09-07T14:12:56;35.40;99.90
17565;DHT22;62994;52.126;5.596;2023-09-07T14:15:22;35.40;99.90
17565;DHT22;62994;52.126;5.596;2023-09-07T14:17:49;35.50;99.90
17565;DHT22;62994;52.126;5.596;2023-09-07T14:20:16;35.50;99.90
17565;DHT22;62994;52.126;5.596;2023-09-07T14:22:44;35.50;99.90
17565;DHT22;62994;52.126;5.596;2023-09-07T14:25:11;35.60;99.90
17565;DHT22;62994;52.126;5.596;2023-09-07T14:27:40;35.80;99.90
17565;DHT22;62994;52.126;5.596;2023-09-07T14:30:08;35.80;99.90
17565;DHT22;62994;52.126;5.596;2023-09-07T14:32:35;35.80;99.90
17565;DHT22;62994;52.126;5.596;2023-09-07T14:35:03;35.80;99.90
17565;DHT22;62994;52.126;5.596;2023-09-07T14:37:30;35.80;99.90
17565;DHT22;62994;52.126;5.596;2023-09-07T14:39:57;35.70;99.90
17565;DHT22;62994;52.126;5.596;2023-09-07T14:42:24;35.60;99.90
17565;DHT22;62994;52.126;5.596;2023-09-07T14:44:53;35.60;99.90
17565;DHT22;62994;52.126;5.596;2023-09-07T14:47:20;35.70;99.90
17565;DHT22;62994;52.126;5.596;2023-09-07T14:49:51;35.80;99.90
17565;DHT22;62994;52.126;5.596;2023-09-07T14:52:18;35.90;99.90
17565;DHT22;62994;52.126;5.596;2023-09-07T14:54:47;35.90;99.90
17565;DHT22;62994;52.126;5.596;2023-09-07T14:57:14;35.90;99.90
17565;DHT22;62994;52.126;5.596;2023-09-07T14:59:41;36.00;99.90
17565;DHT22;62994;52.126;5.596;2023-09-07T15:02:10;36.00;99.90
17565;DHT22;62994;52.126;5.596;2023-09-07T15:04:37;36.00;99.90
17565;DHT22;62994;52.126;5.596;2023-09-07T15:07:04;36.10;99.90
17565;DHT22;62994;52.126;5.596;2023-09-07T15:09:31;36.00;99.90
17565;DHT22;62994;52.126;5.596;2023-09-07T15:11:58;35.80;99.90
17565;DHT22;62994;52.126;5.596;2023-09-07T15:14:25;35.70;99.90
17565;DHT22;62994;52.126;5.596;2023-09-07T15:16:52;35.60;99.90
17565;DHT22;62994;52.126;5.596;2023-09-07T15:19:21;35.40;99.90
17565;DHT22;62994;52.126;5.596;2023-09-07T15:21:48;35.10;99.90
17565;DHT22;62994;52.126;5.596;2023-09-07T15:24:17;35.00;99.90
17565;DHT22;62994;52.126;5.596;2023-09-07T15:26:44;34.70;99.90
17565;DHT22;62994;52.126;5.596;2023-09-07T15:29:12;34.50;99.90
17565;DHT22;62994;52.126;5.596;2023-09-07T15:31:40;34.30;99.90
17565;DHT22;62994;52.126;5.596;2023-09-07T15:34:07;34.10;99.90
17565;DHT22;62994;52.126;5.596;2023-09-07T15:36:35;33.80;99.90
17565;DHT22;62994;52.126;5.596;2023-09-07T15:39:03;33.70;99.90
17565;DHT22;62994;52.126;5.596;2023-09-07T15:41:31;33.40;99.90
17565;DHT22;62994;52.126;5.596;2023-09-07T15:43:58;33.30;99.90
17565;DHT22;62994;52.126;5.596;2023-09-07T15:46:25;33.10;99.90
17565;DHT22;62994;52.126;5.596;2023-09-07T15:48:52;32.90;99.90
17565;DHT22;62994;52.126;5.596;2023-09-07T15:51:19;32.80;99.90
17565;DHT22;62994;52.126;5.596;2023-09-07T15:53:48;32.50;99.90
17565;DHT22;62994;52.126;5.596;2023-09-07T15:56:15;32.40;99.90
17565;DHT22;62994;52.126;5.596;2023-09-07T15:58:42;32.30;99.90
17565;DHT22;62994;52.126;5.596;2023-09-07T16:01:09;32.20;99.90
17565;DHT22;62994;52.126;5.596;2023-09-07T16:03:36;32.10;99.90
17565;DHT22;62994;52.126;5.596;2023-09-07T16:06:03;32.00;99.90
17565;DHT22;62994;52.126;5.596;2023-09-07T16:08:30;31.90;99.90
17565;DHT22;62994;52.126;5.596;2023-09-07T16:11:00;31.90;99.90
17565;DHT22;62994;52.126;5.596;2023-09-07T16:13:28;31.80;99.90
17565;DHT22;62994;52.126;5.596;2023-09-07T16:15:55;31.70;99.90
17565;DHT22;62994;52.126;5.596;2023-09-07T16:18:22;31.60;99.90
17565;DHT22;62994;52.126;5.596;2023-09-07T16:20:49;31.60;99.90